Time;durP1;ratioP1;P1;durP2;ratioP2;P2;SDS_P1;SDS_P2;PMS_P1;PMS_P2;Temp;Humidity;BMP_temperature;BMP_pressure;BME280_temperature;BME280_humidity;BME280_pressure;Samples;Min_cycle;Max_cycle;Signal;HPM_P1;HPM_P2
2021/07/11 00:00:30;;;;;;;7.85;3.67;;;16.00;99.90;;;;;;4919285;29;20054;-84
2021/07/11 00:02:59;;;;;;;7.68;4.80;;;15.90;99.90;;;;;;4936492;29;20040;-83
2021/07/11 00:05:27;;;;;;;4.20;3.80;;;15.90;99.90;;;;;;4951639;29;20056;-83
2021/07/11 00:07:55;;;;;;;3.58;3.28;;;15.90;99.90;;;;;;4934668;29;20044;-82
2021/07/11 00:10:24;;;;;;;4.50;2.80;;;15.80;99.90;;;;;;4951348;29;20382;-83
2021/07/11 00:12:51;;;;;;;2.78;2.58;;;15.70;99.90;;;;;;4950216;29;20039;-84
2021/07/11 00:15:23;;;;;;;2.85;2.65;;;15.60;99.90;;;;;;4950615;28;20043;-88
2021/07/11 00:17:52;;;;;;;2.38;2.17;;;15.60;99.90;;;;;;4935276;29;20051;-85
2021/07/11 00:20:21;;;;;;;2.58;2.38;;;15.50;99.90;;;;;;4934451;29;20621;-86
2021/07/11 00:22:49;;;;;;;2.13;1.88;;;15.40;99.90;;;;;;4936151;28;20058;-87
2021/07/11 00:25:17;;;;;;;2.90;2.60;;;15.40;99.90;;;;;;4937645;29;20062;-85
2021/07/11 00:27:46;;;;;;;1.88;1.77;;;15.30;99.90;;;;;;4936746;29;20062;-87
2021/07/11 00:30:18;;;;;;;1.67;1.58;;;15.30;99.90;;;;;;4938195;29;20050;-86
2021/07/11 00:32:46;;;;;;;1.50;1.40;;;15.20;99.90;;;;;;4953577;29;20050;-87
2021/07/11 00:35:15;;;;;;;2.42;2.22;;;15.20;99.90;;;;;;4937089;29;20402;-86
2021/07/11 00:37:43;;;;;;;1.85;1.75;;;15.20;99.90;;;;;;4954812;29;20047;-88
2021/07/11 00:40:16;;;;;;;1.52;1.42;;;15.20;99.90;;;;;;4937155;29;20051;-88
2021/07/11 00:42:47;;;;;;;2.35;1.60;;;15.20;99.90;;;;;;4952138;28;20054;-86
2021/07/11 00:45:18;;;;;;;1.90;1.80;;;15.20;99.90;;;;;;4937964;29;20055;-86
2021/07/11 00:47:49;;;;;;;1.33;1.23;;;15.20;99.90;;;;;;4936670;29;20054;-88
2021/07/11 00:50:50;;;;;;;1.63;1.50;;;15.20;99.90;;;;;;4937273;29;20055;-88
2021/07/11 00:53:18;;;;;;;5.13;2.42;;;15.20;99.90;;;;;;4944662;29;20051;-84
2021/07/11 00:55:48;;;;;;;2.97;1.55;;;15.20;99.90;;;;;;4953082;28;20063;-84
2021/07/11 00:58:16;;;;;;;3.30;1.50;;;15.10;99.90;;;;;;4953806;29;20485;-84
2021/07/11 01:00:57;;;;;;;1.70;1.60;;;15.10;99.90;;;;;;4952225;29;20047;-85
2021/07/11 01:03:37;;;;;;;2.28;1.95;;;15.00;99.90;;;;;;4936785;29;20055;-82
2021/07/11 01:06:13;;;;;;;1.77;1.67;;;15.00;99.90;;;;;;4953233;29;20047;-85
2021/07/11 01:09:10;;;;;;;3.58;2.28;;;15.00;99.90;;;;;;4951952;28;20055;-85
2021/07/11 01:11:47;;;;;;;1.70;1.60;;;14.90;99.90;;;;;;4936264;29;20074;-83
2021/07/11 01:14:16;;;;;;;2.42;1.83;;;14.90;99.90;;;;;;4935833;29;20404;-78
2021/07/11 01:16:48;;;;;;;1.83;1.73;;;14.80;99.90;;;;;;4952476;28;20254;-79
2021/07/11 01:19:38;;;;;;;1.75;1.65;;;14.80;99.90;;;;;;4952887;28;20054;-81
2021/07/11 01:22:11;;;;;;;3.08;1.85;;;14.70;99.90;;;;;;4968737;28;20058;-80
2021/07/11 01:24:53;;;;;;;3.95;1.42;;;14.60;99.90;;;;;;4968571;28;20043;-81
2021/07/11 01:27:21;;;;;;;2.25;1.88;;;14.60;99.90;;;;;;4968361;28;20043;-81
2021/07/11 01:29:51;;;;;;;2.08;1.88;;;14.50;99.90;;;;;;4958030;28;20059;-83
2021/07/11 01:32:19;;;;;;;1.42;1.33;;;14.50;99.90;;;;;;4952187;29;20062;-84
2021/07/11 01:34:49;;;;;;;2.22;2.08;;;14.40;99.90;;;;;;4952532;28;20051;-82
2021/07/11 01:37:18;;;;;;;1.38;1.10;;;14.40;99.90;;;;;;4952952;28;20055;-84
2021/07/11 01:39:47;;;;;;;4.72;1.60;;;14.40;99.90;;;;;;4967687;28;20405;-85
2021/07/11 01:42:19;;;;;;;1.50;1.40;;;14.40;99.90;;;;;;4936427;29;20435;-83
2021/07/11 01:44:48;;;;;;;1.75;1.58;;;14.30;99.90;;;;;;4934852;29;20502;-85
2021/07/11 01:47:18;;;;;;;2.15;1.88;;;14.30;99.90;;;;;;4967588;28;20066;-80
2021/07/11 01:49:48;;;;;;;1.45;1.35;;;14.20;99.90;;;;;;4932826;29;20405;-82
2021/07/11 01:52:17;;;;;;;1.65;1.25;;;14.20;99.90;;;;;;4937170;29;20058;-82
2021/07/11 01:54:47;;;;;;;1.77;1.42;;;14.20;99.90;;;;;;4952839;28;20047;-81
2021/07/11 01:57:17;;;;;;;1.33;1.23;;;14.20;99.90;;;;;;4967893;28;20047;-80
2021/07/11 01:59:50;;;;;;;3.75;2.97;;;14.20;99.90;;;;;;4950266;29;20043;-86
2021/07/11 02:02:40;;;;;;;1.63;1.52;;;14.20;99.90;;;;;;4947620;28;20051;-86
2021/07/11 02:05:17;;;;;;;2.38;1.40;;;14.20;99.90;;;;;;4952240;29;20059;-84
2021/07/11 02:07:51;;;;;;;2.30;1.23;;;14.10;99.90;;;;;;4966979;28;20047;-86
2021/07/11 02:10:19;;;;;;;2.25;1.38;;;14.10;99.90;;;;;;4936542;29;20047;-86
2021/07/11 02:13:04;;;;;;;1.10;1.10;;;14.10;99.90;;;;;;4940459;28;20062;-90
2021/07/11 02:15:37;;;;;;;2.50;1.75;;;14.10;99.90;;;;;;4956984;28;20047;-87
2021/07/11 02:18:10;;;;;;;1.98;1.67;;;14.10;99.90;;;;;;4943277;28;20054;-84
2021/07/11 02:20:48;;;;;;;2.33;1.85;;;14.10;99.90;;;;;;4955242;28;20046;-89
2021/07/11 02:23:23;;;;;;;1.70;1.60;;;14.10;99.90;;;;;;4940128;28;20054;-89
2021/07/11 02:25:53;;;;;;;1.55;1.30;;;14.10;99.90;;;;;;4933225;28;20059;-90
2021/07/11 02:28:23;;;;;;;3.67;1.38;;;14.10;99.90;;;;;;4944795;28;20405;-90
2021/07/11 02:30:53;;;;;;;2.78;1.30;;;14.00;99.90;;;;;;4946250;28;20054;-88
2021/07/11 02:33:35;;;;;;;1.95;1.50;;;14.10;99.90;;;;;;4985938;28;20046;-86
2021/07/11 02:36:19;;;;;;;1.90;1.40;;;14.10;99.90;;;;;;4964421;28;20039;-87
2021/07/11 02:39:02;;;;;;;1.52;1.13;;;14.10;99.90;;;;;;4954250;28;20391;-81
2021/07/11 02:41:38;;;;;;;1.35;1.00;;;14.10;99.90;;;;;;4985878;28;20058;-85
2021/07/11 02:44:10;;;;;;;1.07;1.07;;;14.10;99.90;;;;;;4985795;28;20046;-89
2021/07/11 02:46:45;;;;;;;1.40;1.30;;;14.00;99.90;;;;;;4953838;28;20054;-85
2021/07/11 02:49:17;;;;;;;1.95;1.02;;;14.00;99.90;;;;;;4969043;28;20043;-90
2021/07/11 02:51:50;;;;;;;2.25;1.02;;;14.00;99.90;;;;;;4970775;28;20046;-87
2021/07/11 02:54:26;;;;;;;1.27;0.88;;;14.00;99.90;;;;;;4967300;28;20500;-86
2021/07/11 02:57:03;;;;;;;1.17;1.08;;;13.90;99.90;;;;;;4942414;29;20051;-86
2021/07/11 02:59:34;;;;;;;2.13;1.48;;;13.90;99.90;;;;;;4949235;28;20047;-88
2021/07/11 03:02:05;;;;;;;1.15;1.05;;;13.90;99.90;;;;;;4964571;28;20391;-89
2021/07/11 03:04:39;;;;;;;0.60;0.60;;;13.80;99.90;;;;;;4927904;29;20528;-85
2021/07/11 03:07:09;;;;;;;1.50;0.88;;;13.80;99.90;;;;;;4922386;29;20048;-86
2021/07/11 03:09:42;;;;;;;1.83;1.58;;;13.80;99.90;;;;;;4975160;28;20051;-88
2021/07/11 03:12:16;;;;;;;1.33;1.25;;;13.80;99.90;;;;;;4968393;28;20039;-86
2021/07/11 03:14:48;;;;;;;1.13;1.13;;;13.80;99.90;;;;;;4969174;28;20166;-88
2021/07/11 03:17:23;;;;;;;1.45;1.20;;;13.80;99.90;;;;;;4954437;28;20054;-88
2021/07/11 03:19:53;;;;;;;1.08;0.80;;;13.80;99.90;;;;;;4950311;28;20408;-89
2021/07/11 03:22:29;;;;;;;1.02;0.80;;;13.80;99.90;;;;;;4954310;28;20054;-88
2021/07/11 03:25:06;;;;;;;0.75;0.75;;;13.70;99.90;;;;;;4937731;28;20671;-85
2021/07/11 03:27:35;;;;;;;4.18;0.90;;;13.70;99.90;;;;;;4953813;28;20054;-87
2021/07/11 03:30:11;;;;;;;2.70;1.15;;;13.70;99.90;;;;;;4969733;28;20053;-87
2021/07/11 03:32:52;;;;;;;0.80;0.80;;;13.70;99.90;;;;;;4973350;28;20034;-87
2021/07/11 03:35:27;;;;;;;0.70;0.70;;;13.70;99.90;;;;;;4951860;28;20051;-89
2021/07/11 03:37:58;;;;;;;1.15;1.08;;;13.70;99.90;;;;;;4957704;28;20420;-89
2021/07/11 03:40:30;;;;;;;1.10;0.73;;;13.70;99.90;;;;;;4973534;28;20054;-89
2021/07/11 03:43:08;;;;;;;2.97;0.70;;;13.70;99.90;;;;;;4956577;28;20610;-90
2021/07/11 03:45:40;;;;;;;0.63;0.63;;;13.70;99.90;;;;;;4959018;28;20058;-92
2021/07/11 03:48:16;;;;;;;5.00;1.90;;;13.70;99.90;;;;;;4959214;28;20043;-89
2021/07/11 03:50:52;;;;;;;1.05;0.95;;;13.70;99.90;;;;;;4952527;28;20050;-91
2021/07/11 03:53:25;;;;;;;0.73;0.73;;;13.70;99.90;;;;;;4943227;29;20397;-90
2021/07/11 03:55:56;;;;;;;1.25;0.80;;;13.80;99.90;;;;;;4946179;28;20047;-92
2021/07/11 03:58:28;;;;;;;1.10;1.00;;;13.70;99.90;;;;;;4961341;28;20058;-92
2021/07/11 04:00:58;;;;;;;0.77;0.77;;;13.70;99.90;;;;;;4991061;28;20069;-92
2021/07/11 04:03:27;;;;;;;0.88;0.88;;;13.70;99.90;;;;;;4975765;28;20391;-90
2021/07/11 04:05:57;;;;;;;4.30;0.77;;;13.70;99.90;;;;;;4975221;28;20501;-88
2021/07/11 04:08:26;;;;;;;0.70;0.70;;;13.70;99.90;;;;;;4967938;28;20512;-91
2021/07/11 04:10:57;;;;;;;0.95;0.90;;;13.70;99.90;;;;;;4974811;28;20054;-91
2021/07/11 04:13:25;;;;;;;0.80;0.77;;;13.70;99.90;;;;;;4957814;28;20047;-87
2021/07/11 04:16:00;;;;;;;0.80;0.75;;;13.60;99.90;;;;;;4973648;28;20039;-92
2021/07/11 04:18:29;;;;;;;6.93;1.20;;;13.60;99.90;;;;;;4990849;28;20051;-90
2021/07/11 04:20:59;;;;;;;2.53;1.15;;;13.60;99.90;;;;;;4966621;28;20050;-92
2021/07/11 04:23:33;;;;;;;0.95;0.70;;;13.60;99.90;;;;;;4957335;28;20042;-91
2021/07/11 04:26:03;;;;;;;1.48;0.52;;;13.60;99.90;;;;;;4974022;28;20054;-89
2021/07/11 04:28:36;;;;;;;0.70;0.70;;;13.60;99.90;;;;;;4956423;28;20050;-92
2021/07/11 04:31:05;;;;;;;2.58;1.02;;;13.60;99.90;;;;;;4988870;28;20038;-90
2021/07/11 04:33:34;;;;;;;0.73;0.70;;;13.60;99.90;;;;;;4940757;28;20069;-90
2021/07/11 04:36:05;;;;;;;0.45;0.45;;;13.50;99.90;;;;;;4957014;28;20508;-92
2021/07/11 04:38:33;;;;;;;1.17;1.10;;;13.50;99.90;;;;;;4958895;28;20053;-92
2021/07/11 04:41:03;;;;;;;0.68;0.60;;;13.60;99.90;;;;;;4941911;28;20053;-90
2021/07/11 04:43:31;;;;;;;0.60;0.60;;;13.60;99.90;;;;;;4956880;28;20050;-92
2021/07/11 04:46:00;;;;;;;1.08;0.90;;;13.60;99.90;;;;;;4959242;28;20050;-90
2021/07/11 04:48:28;;;;;;;1.65;1.08;;;13.60;99.90;;;;;;4956678;28;20040;-92
2021/07/11 04:50:57;;;;;;;0.70;0.70;;;13.60;99.90;;;;;;4945150;28;20481;-91
2021/07/11 04:53:24;;;;;;;8.93;0.77;;;13.60;99.90;;;;;;4939139;29;20047;-91
2021/07/11 04:55:54;;;;;;;1.40;1.40;;;13.60;99.90;;;;;;4939775;28;20047;-91
2021/07/11 04:58:23;;;;;;;0.83;0.83;;;13.60;99.90;;;;;;4953072;28;20397;-92
2021/07/11 05:00:51;;;;;;;0.43;0.43;;;13.70;99.90;;;;;;4947061;28;20051;-91
2021/07/11 05:03:19;;;;;;;0.40;0.40;;;13.70;99.90;;;;;;4973407;28;20043;-92
2021/07/11 05:05:48;;;;;;;0.73;0.70;;;13.70;99.90;;;;;;4957619;28;20070;-92
2021/07/11 05:08:18;;;;;;;1.70;0.90;;;13.70;99.90;;;;;;4929248;28;20047;-90
2021/07/11 05:10:49;;;;;;;0.60;0.60;;;13.70;99.90;;;;;;4932817;28;20291;-90
2021/07/11 05:13:17;;;;;;;0.68;0.68;;;13.70;99.90;;;;;;4971240;28;20135;-90
2021/07/11 05:15:45;;;;;;;0.60;0.60;;;13.70;99.90;;;;;;4955138;28;20038;-91
2021/07/11 05:18:13;;;;;;;0.50;0.50;;;13.70;99.90;;;;;;4948489;28;20061;-91
2021/07/11 05:20:43;;;;;;;0.65;0.65;;;13.70;99.90;;;;;;4953410;28;20042;-92
2021/07/11 05:23:10;;;;;;;0.60;0.60;;;13.60;99.90;;;;;;4982459;28;20058;-91
2021/07/11 05:25:38;;;;;;;0.55;0.55;;;13.60;99.90;;;;;;4941024;28;20049;-90
2021/07/11 05:28:06;;;;;;;1.20;1.10;;;13.60;99.90;;;;;;4945061;28;20399;-90
2021/07/11 05:30:34;;;;;;;0.52;0.52;;;13.60;99.90;;;;;;4934255;28;20062;-86
2021/07/11 05:33:03;;;;;;;1.17;1.00;;;13.60;99.90;;;;;;4937470;28;20108;-88
2021/07/11 05:35:30;;;;;;;0.65;0.65;;;13.60;99.90;;;;;;4954042;28;20182;-86
2021/07/11 05:37:58;;;;;;;0.47;0.47;;;13.60;99.90;;;;;;4963068;28;20062;-86
2021/07/11 05:40:26;;;;;;;0.60;0.60;;;13.50;99.90;;;;;;4923923;28;20040;-86
2021/07/11 05:42:54;;;;;;;4.03;0.60;;;13.60;99.90;;;;;;4945705;28;20055;-87
2021/07/11 05:45:22;;;;;;;0.70;0.70;;;13.60;99.90;;;;;;4938990;28;20054;-87
2021/07/11 05:47:49;;;;;;;0.68;0.68;;;13.60;99.90;;;;;;4938749;28;20416;-87
2021/07/11 05:50:18;;;;;;;0.70;0.70;;;13.60;99.90;;;;;;4928788;28;20501;-87
2021/07/11 05:52:45;;;;;;;0.50;0.50;;;13.60;99.90;;;;;;4919263;28;20041;-88
2021/07/11 05:55:13;;;;;;;0.50;0.50;;;13.60;99.90;;;;;;4945749;28;20043;-87
2021/07/11 05:57:41;;;;;;;3.42;0.55;;;13.60;99.90;;;;;;4922168;28;20058;-88
2021/07/11 06:00:11;;;;;;;0.60;0.50;;;13.60;99.90;;;;;;4970878;28;20035;-88
2021/07/11 06:02:42;;;;;;;1.40;0.50;;;13.70;99.90;;;;;;4959389;28;20039;-88
2021/07/11 06:05:10;;;;;;;0.95;0.40;;;13.70;99.90;;;;;;4937046;29;20898;-88
2021/07/11 06:07:38;;;;;;;0.63;0.50;;;13.70;99.90;;;;;;4948694;28;20052;-87
2021/07/11 06:10:07;;;;;;;0.70;0.70;;;13.80;99.90;;;;;;4951223;29;20052;-87
2021/07/11 06:12:35;;;;;;;1.55;0.50;;;13.80;99.90;;;;;;4965871;28;20050;-86
2021/07/11 06:15:05;;;;;;;0.63;0.63;;;13.80;99.90;;;;;;4933748;29;20701;-84
2021/07/11 06:17:33;;;;;;;20.33;2.72;;;13.80;99.90;;;;;;4952088;29;20047;-84
2021/07/11 06:20:06;;;;;;;0.60;0.60;;;13.90;99.90;;;;;;4961194;28;20055;-82
2021/07/11 06:22:35;;;;;;;0.77;0.57;;;13.90;99.90;;;;;;4951797;29;20047;-81
2021/07/11 06:25:07;;;;;;;0.60;0.60;;;14.00;99.90;;;;;;4950085;29;20054;-82
2021/07/11 06:27:43;;;;;;;0.68;0.52;;;14.00;99.90;;;;;;4949950;28;20488;-81
2021/07/11 06:30:15;;;;;;;0.45;0.45;;;14.00;99.90;;;;;;4933807;29;20054;-83
2021/07/11 06:32:44;;;;;;;0.70;0.63;;;13.90;99.90;;;;;;4950269;29;20059;-82
2021/07/11 06:35:16;;;;;;;0.50;0.50;;;13.90;99.90;;;;;;4950242;28;20054;-83
2021/07/11 06:37:49;;;;;;;0.70;0.70;;;14.00;99.90;;;;;;4934281;29;20043;-82
2021/07/11 06:40:20;;;;;;;1.02;0.80;;;14.10;99.90;;;;;;4950013;29;20039;-84
2021/07/11 06:42:48;;;;;;;0.52;0.52;;;14.10;99.90;;;;;;4964837;28;20035;-83
2021/07/11 06:45:16;;;;;;;0.55;0.55;;;14.20;99.90;;;;;;4932499;29;20055;-86
2021/07/11 06:47:46;;;;;;;0.50;0.50;;;14.30;99.90;;;;;;4949779;28;20035;-83
2021/07/11 06:50:15;;;;;;;0.68;0.60;;;14.30;99.90;;;;;;4949838;29;20397;-83
2021/07/11 06:52:44;;;;;;;1.15;1.10;;;14.30;99.90;;;;;;4965022;28;20040;-84
2021/07/11 06:55:12;;;;;;;0.60;0.60;;;14.30;99.90;;;;;;4933400;29;20392;-82
2021/07/11 06:57:40;;;;;;;0.80;0.80;;;14.30;99.90;;;;;;4943388;29;20043;-85
2021/07/11 07:00:11;;;;;;;0.65;0.65;;;14.40;99.90;;;;;;4948816;28;20047;-83
2021/07/11 07:02:40;;;;;;;0.50;0.50;;;14.40;99.90;;;;;;4938975;28;20062;-84
2021/07/11 07:05:09;;;;;;;0.50;0.50;;;14.40;99.90;;;;;;4986679;28;20058;-85
2021/07/11 07:07:38;;;;;;;0.63;0.60;;;14.40;99.90;;;;;;4954025;28;20055;-81
2021/07/11 07:10:13;;;;;;;1.20;0.80;;;14.50;99.90;;;;;;4970103;28;20043;-83
2021/07/11 07:12:42;;;;;;;0.55;0.55;;;14.50;99.90;;;;;;4921830;29;20039;-83
2021/07/11 07:15:11;;;;;;;0.30;0.30;;;14.50;99.90;;;;;;4937360;29;20404;-83
2021/07/11 07:17:39;;;;;;;1.77;0.45;;;14.50;99.90;;;;;;4954216;29;20058;-84
2021/07/11 07:20:08;;;;;;;0.55;0.55;;;14.50;99.90;;;;;;4953904;29;20039;-83
2021/07/11 07:22:37;;;;;;;0.65;0.65;;;14.50;99.90;;;;;;4954776;29;20047;-83
2021/07/11 07:25:07;;;;;;;0.60;0.57;;;14.50;99.90;;;;;;4950436;29;20040;-83
2021/07/11 07:27:35;;;;;;;1.02;1.02;;;14.50;99.90;;;;;;4943613;28;20510;-81
2021/07/11 07:30:05;;;;;;;1.05;0.60;;;14.50;99.90;;;;;;4954699;29;20047;-82
2021/07/11 07:32:42;;;;;;;2.67;0.57;;;14.50;99.90;;;;;;4965309;28;20385;-86
2021/07/11 07:35:10;;;;;;;0.63;0.57;;;14.60;99.90;;;;;;4956626;28;20039;-81
2021/07/11 07:37:38;;;;;;;0.50;0.50;;;14.60;99.90;;;;;;4957265;28;20062;-87
2021/07/11 07:40:07;;;;;;;0.88;0.73;;;14.60;99.90;;;;;;4967796;28;20039;-82
2021/07/11 07:42:35;;;;;;;0.88;0.70;;;14.70;99.90;;;;;;4954741;29;20154;-83
2021/07/11 07:45:04;;;;;;;0.40;0.40;;;14.70;99.90;;;;;;4937661;29;20489;-80
2021/07/11 07:47:32;;;;;;;0.98;0.98;;;14.70;99.90;;;;;;4954040;28;20051;-79
2021/07/11 07:50:01;;;;;;;0.40;0.40;;;14.70;99.90;;;;;;4962138;28;20043;-86
2021/07/11 07:52:33;;;;;;;0.73;0.40;;;14.70;99.90;;;;;;4969856;28;20067;-81
2021/07/11 07:55:02;;;;;;;0.60;0.60;;;14.80;99.90;;;;;;4953732;28;20290;-80
2021/07/11 07:57:30;;;;;;;0.55;0.55;;;14.80;99.90;;;;;;4955458;29;20054;-81
2021/07/11 07:59:57;;;;;;;0.50;0.50;;;14.80;99.90;;;;;;4952671;28;20047;-82
2021/07/11 08:02:26;;;;;;;1.02;0.45;;;14.90;99.90;;;;;;4938711;29;20062;-81
2021/07/11 08:04:57;;;;;;;0.65;0.60;;;15.00;99.90;;;;;;4955193;28;20055;-80
2021/07/11 08:07:26;;;;;;;1.45;0.80;;;15.10;99.90;;;;;;4959735;28;20057;-80
2021/07/11 08:09:54;;;;;;;0.70;0.70;;;15.10;99.90;;;;;;4972391;28;20472;-81
2021/07/11 08:12:22;;;;;;;0.50;0.45;;;15.20;99.90;;;;;;4973816;28;20058;-80
2021/07/11 08:14:49;;;;;;;0.47;0.47;;;15.20;99.90;;;;;;4971112;28;20081;-86
2021/07/11 08:17:17;;;;;;;0.77;0.50;;;15.20;99.90;;;;;;4972779;28;20090;-88
2021/07/11 08:19:47;;;;;;;0.90;0.73;;;15.10;99.90;;;;;;4972906;28;20059;-83
2021/07/11 08:22:14;;;;;;;1.02;0.93;;;15.30;99.90;;;;;;4973661;28;20058;-81
2021/07/11 08:24:42;;;;;;;0.68;0.68;;;15.30;99.90;;;;;;4972562;28;20039;-82
2021/07/11 08:27:10;;;;;;;0.60;0.60;;;15.30;99.90;;;;;;4972984;28;20065;-82
2021/07/11 08:29:38;;;;;;;1.30;0.75;;;15.40;99.90;;;;;;4972218;28;20396;-83
2021/07/11 08:32:06;;;;;;;1.67;0.60;;;15.50;99.90;;;;;;4973468;28;20043;-82
2021/07/11 08:34:34;;;;;;;0.38;0.38;;;15.50;99.90;;;;;;4974025;28;20051;-83
2021/07/11 08:37:03;;;;;;;0.90;0.77;;;15.50;99.90;;;;;;4972528;28;20484;-85
2021/07/11 08:39:31;;;;;;;1.05;0.63;;;15.50;99.90;;;;;;4988459;28;20065;-84
2021/07/11 08:41:59;;;;;;;1.10;0.80;;;15.30;99.90;;;;;;4972634;28;20043;-83
2021/07/11 08:44:27;;;;;;;0.45;0.43;;;15.30;99.90;;;;;;4972439;28;20046;-85
2021/07/11 08:46:57;;;;;;;;;;;15.30;99.90;;;;;;4971817;28;20053;-84
2021/07/11 08:49:25;;;;;;;0.82;0.68;;;15.30;99.90;;;;;;4971635;28;19926;-83
2021/07/11 08:51:58;;;;;;;0.68;0.68;;;15.40;99.90;;;;;;4961026;28;20043;-84
2021/07/11 08:54:26;;;;;;;0.45;0.45;;;15.30;99.90;;;;;;4971476;28;20043;-85
2021/07/11 08:56:58;;;;;;;1.23;1.10;;;15.40;99.90;;;;;;4972052;28;20047;-84
2021/07/11 08:59:30;;;;;;;3.67;0.57;;;15.30;99.90;;;;;;4969488;28;20051;-85
2021/07/11 09:01:57;;;;;;;1.27;1.00;;;15.20;99.90;;;;;;4986630;28;20054;-84
2021/07/11 09:04:26;;;;;;;0.60;0.60;;;15.20;99.90;;;;;;4971833;28;20046;-85
2021/07/11 09:06:56;;;;;;;3.38;1.10;;;15.10;99.90;;;;;;4970250;28;20480;-85
2021/07/11 09:09:37;;;;;;;0.70;0.70;;;15.10;99.90;;;;;;4970711;28;20070;-84
2021/07/11 09:12:10;;;;;;;0.98;0.80;;;15.10;99.90;;;;;;4971348;28;20039;-84
2021/07/11 09:14:59;;;;;;;2.25;0.88;;;15.10;99.90;;;;;;4968829;28;20062;-83
2021/07/11 09:17:33;;;;;;;0.93;0.93;;;15.10;99.90;;;;;;4970825;28;20404;-83
2021/07/11 09:20:06;;;;;;;1.15;0.90;;;15.10;99.90;;;;;;4970037;28;20666;-84
2021/07/11 09:22:34;;;;;;;1.42;1.00;;;15.00;99.90;;;;;;4971077;28;20073;-83
2021/07/11 09:25:02;;;;;;;1.27;1.17;;;15.00;99.90;;;;;;4971567;28;20073;-83
2021/07/11 09:27:34;;;;;;;3.17;1.70;;;15.00;99.90;;;;;;4971670;28;20106;-83
2021/07/11 09:30:06;;;;;;;1.45;0.80;;;15.00;99.90;;;;;;4957145;28;20419;-83
2021/07/11 09:32:41;;;;;;;1.30;0.95;;;14.90;99.90;;;;;;4950610;29;20043;-83
2021/07/11 09:35:12;;;;;;;1.15;1.15;;;15.00;99.90;;;;;;4952155;28;20043;-82
2021/07/11 09:37:43;;;;;;;1.38;1.17;;;15.10;99.90;;;;;;4935173;29;20060;-82
2021/07/11 09:40:13;;;;;;;1.35;1.25;;;15.10;99.90;;;;;;4951618;28;20048;-81
2021/07/11 09:42:43;;;;;;;0.73;0.73;;;15.20;99.90;;;;;;4934424;28;20074;-82
2021/07/11 09:45:18;;;;;;;2.38;2.17;;;15.20;99.90;;;;;;4949694;29;20054;-85
2021/07/11 09:47:48;;;;;;;1.88;1.20;;;15.10;99.90;;;;;;4934123;29;20513;-85
2021/07/11 09:50:21;;;;;;;1.30;1.20;;;15.10;99.90;;;;;;4959874;28;20047;-85
2021/07/11 09:52:51;;;;;;;1.17;1.08;;;15.00;99.90;;;;;;4936897;28;20049;-85
2021/07/11 09:55:24;;;;;;;1.20;1.10;;;15.00;99.90;;;;;;4985433;28;20050;-85
2021/07/11 09:57:58;;;;;;;1.75;1.60;;;15.00;99.90;;;;;;4952297;28;20523;-86
2021/07/11 10:00:31;;;;;;;1.58;1.48;;;15.00;99.90;;;;;;4968841;28;20500;-82
2021/07/11 10:03:11;;;;;;;1.58;1.13;;;15.00;99.90;;;;;;4970593;28;20047;-82
2021/07/11 10:05:41;;;;;;;1.77;1.40;;;15.10;99.90;;;;;;4986268;28;20374;-82
2021/07/11 10:08:09;;;;;;;3.38;1.70;;;15.00;99.90;;;;;;4960021;28;20501;-82
2021/07/11 10:10:39;;;;;;;1.30;0.93;;;15.00;99.90;;;;;;4951477;29;20089;-81
2021/07/11 10:13:07;;;;;;;3.35;1.58;;;15.00;99.90;;;;;;4949452;28;20440;-81
2021/07/11 10:15:38;;;;;;;1.63;1.30;;;15.10;99.90;;;;;;4949433;29;20485;-81
2021/07/11 10:18:12;;;;;;;2.75;2.10;;;15.10;99.90;;;;;;4967715;28;20105;-81
2021/07/11 10:20:49;;;;;;;2.67;1.30;;;15.20;99.90;;;;;;4984977;28;20051;-82
2021/07/11 10:23:34;;;;;;;1.60;1.15;;;15.20;99.90;;;;;;4970423;28;20047;-82
2021/07/11 10:26:08;;;;;;;1.30;1.20;;;15.30;99.90;;;;;;4971176;28;20506;-82
2021/07/11 10:28:38;;;;;;;1.52;1.42;;;15.40;99.90;;;;;;4968030;28;20051;-82
2021/07/11 10:31:19;;;;;;;5.00;1.38;;;15.60;99.90;;;;;;4970434;28;20046;-82
2021/07/11 10:33:50;;;;;;;1.30;1.20;;;15.70;99.90;;;;;;4969000;28;20065;-82
2021/07/11 10:36:39;;;;;;;2.38;2.28;;;15.90;99.90;;;;;;4969643;28;20049;-83
2021/07/11 10:39:12;;;;;;;1.48;1.20;;;16.00;99.90;;;;;;4968785;28;20051;-83
2021/07/11 10:41:51;;;;;;;1.40;1.30;;;16.10;99.90;;;;;;4968671;28;20047;-82
2021/07/11 10:44:22;;;;;;;1.70;1.60;;;16.10;99.90;;;;;;4966735;28;20038;-83
2021/07/11 10:46:59;;;;;;;1.92;1.63;;;16.10;99.90;;;;;;4970280;28;20062;-83
2021/07/11 10:49:30;;;;;;;1.08;1.05;;;16.20;99.90;;;;;;4985587;28;20058;-83
2021/07/11 10:52:00;;;;;;;;;;;16.10;99.90;;;;;;4959623;28;20050;-83
2021/07/11 10:54:48;;;;;;;2.25;1.73;;;16.20;99.90;;;;;;4971048;28;19941;-83
2021/07/11 10:57:33;;;;;;;1.70;1.02;;;16.20;99.90;;;;;;4968121;28;20523;-83
2021/07/11 11:00:36;;;;;;;2.10;2.00;;;16.50;99.90;;;;;;4966876;28;20736;-85
2021/07/11 11:03:22;;;;;;;1.50;1.10;;;16.60;99.90;;;;;;4967772;28;20062;-84
2021/07/11 11:05:51;;;;;;;2.55;1.00;;;16.70;99.90;;;;;;4953295;28;20046;-83
2021/07/11 11:08:25;;;;;;;1.23;1.10;;;16.70;99.90;;;;;;4968765;28;20042;-84
2021/07/11 11:10:54;;;;;;;2.33;1.83;;;16.80;99.90;;;;;;4952409;28;20070;-84
2021/07/11 11:13:27;;;;;;;1.30;1.20;;;17.10;99.90;;;;;;4967798;28;20045;-85
2021/07/11 11:16:13;;;;;;;1.83;1.40;;;17.20;99.90;;;;;;4968922;28;20176;-82
2021/07/11 11:18:43;;;;;;;1.85;1.75;;;17.30;99.90;;;;;;4969978;28;20050;-83
2021/07/11 11:21:19;;;;;;;2.40;1.85;;;17.20;99.90;;;;;;4968341;28;20062;-84
2021/07/11 11:23:49;;;;;;;2.80;1.30;;;17.20;99.90;;;;;;4984802;28;20074;-84
2021/07/11 11:26:27;;;;;;;1.50;1.40;;;17.10;99.90;;;;;;4969192;28;20058;-84
2021/07/11 11:28:58;;;;;;;2.25;1.42;;;17.20;99.90;;;;;;4948292;28;20051;-84
2021/07/11 11:31:30;;;;;;;1.97;1.57;;;17.20;99.90;;;;;;4950146;29;20054;-85
2021/07/11 11:34:12;;;;;;;1.42;1.33;;;17.20;99.90;;;;;;4951392;29;20773;-84
2021/07/11 11:36:48;;;;;;;1.65;1.55;;;17.20;99.90;;;;;;4950754;28;20066;-84
2021/07/11 11:39:27;;;;;;;1.20;1.10;;;17.20;99.90;;;;;;4943011;28;20054;-86
2021/07/11 11:41:55;;;;;;;1.42;1.00;;;17.30;99.90;;;;;;4968653;28;20058;-86
2021/07/11 11:44:25;;;;;;;1.38;1.17;;;17.20;99.90;;;;;;4970430;28;20058;-86
2021/07/11 11:46:55;;;;;;;1.50;1.33;;;17.30;99.90;;;;;;4953259;28;20046;-86
2021/07/11 11:49:26;;;;;;;1.60;1.50;;;17.40;99.90;;;;;;4970183;28;20058;-87
2021/07/11 11:51:56;;;;;;;2.15;1.95;;;17.60;99.90;;;;;;4952698;28;20042;-86
2021/07/11 11:54:44;;;;;;;2.27;1.47;;;17.80;99.90;;;;;;4975019;28;20054;-87
2021/07/11 11:57:12;;;;;;;1.13;1.02;;;17.70;99.90;;;;;;4955280;28;20047;-87
2021/07/11 11:59:40;;;;;;;1.73;1.63;;;17.80;99.90;;;;;;4956196;28;20496;-85
2021/07/11 12:02:11;;;;;;;1.35;1.25;;;17.80;99.90;;;;;;4972328;28;20729;-86
2021/07/11 12:04:39;;;;;;;1.52;1.42;;;17.80;99.90;;;;;;4955068;28;20040;-87
2021/07/11 12:07:11;;;;;;;2.20;1.70;;;17.70;99.90;;;;;;4974261;28;20042;-87
2021/07/11 12:09:40;;;;;;;2.63;1.70;;;17.60;99.90;;;;;;4968582;28;20054;-87
2021/07/11 12:12:10;;;;;;;1.15;1.05;;;17.70;99.90;;;;;;4974008;28;20524;-87
2021/07/11 12:14:41;;;;;;;4.80;1.60;;;17.60;99.90;;;;;;4985593;28;20055;-86
2021/07/11 12:17:15;;;;;;;2.25;1.85;;;17.50;99.90;;;;;;4952944;29;20420;-86
2021/07/11 12:19:49;;;;;;;2.08;1.30;;;17.50;99.90;;;;;;4961864;28;20039;-87
2021/07/11 12:22:20;;;;;;;2.00;1.70;;;17.50;99.90;;;;;;4956475;28;20055;-86
2021/07/11 12:25:14;;;;;;;1.85;1.75;;;17.50;99.90;;;;;;4973591;28;20039;-87
2021/07/11 12:27:43;;;;;;;1.58;1.48;;;17.50;99.90;;;;;;4972770;28;20057;-87
2021/07/11 12:30:15;;;;;;;2.53;1.85;;;17.50;99.90;;;;;;4974226;28;20049;-87
2021/07/11 12:32:46;;;;;;;2.15;1.42;;;17.50;99.90;;;;;;4972396;28;20043;-87
2021/07/11 12:35:15;;;;;;;4.15;2.08;;;17.60;99.90;;;;;;4973928;28;20054;-87
2021/07/11 12:37:55;;;;;;;1.33;1.20;;;17.70;99.90;;;;;;4972704;28;20593;-86
2021/07/11 12:40:34;;;;;;;2.10;1.45;;;17.80;99.90;;;;;;4972383;28;20043;-86
2021/07/11 12:43:06;;;;;;;1.48;1.38;;;18.00;99.90;;;;;;4971655;28;20051;-84
2021/07/11 12:45:36;;;;;;;1.52;1.30;;;18.10;99.90;;;;;;4956879;28;20594;-87
2021/07/11 12:48:05;;;;;;;1.48;1.38;;;18.10;99.90;;;;;;4956103;28;20085;-88
2021/07/11 12:50:40;;;;;;;2.17;1.55;;;18.40;99.90;;;;;;4973013;28;20047;-84
2021/07/11 12:53:08;;;;;;;1.27;1.20;;;18.40;99.90;;;;;;4964739;28;20492;-87
2021/07/11 12:55:37;;;;;;;0.82;0.82;;;18.30;99.90;;;;;;4971869;28;20054;-88
2021/07/11 12:58:15;;;;;;;2.25;1.38;;;18.30;99.90;;;;;;4972236;28;20058;-85
2021/07/11 13:00:43;;;;;;;1.05;1.05;;;18.40;99.90;;;;;;4955445;28;20058;-86
2021/07/11 13:03:11;;;;;;;1.60;1.50;;;18.40;99.90;;;;;;4973176;28;20046;-87
2021/07/11 13:05:43;;;;;;;1.23;1.13;;;18.50;99.90;;;;;;4956123;28;20054;-86
2021/07/11 13:08:12;;;;;;;1.27;1.17;;;18.70;99.90;;;;;;4971330;28;20046;-86
2021/07/11 13:10:42;;;;;;;1.80;1.70;;;18.70;99.90;;;;;;4956504;28;20043;-85